Terminal Aerodrome Forecast
Issued by NWS

Home | Current Version | Previous Version | Text Only | Print | Product List | Glossary On
Versions: 1 2 3 4 5 6 7 8 9 10 11 12 13 14 15
000
FTUS46 KSGX 062320
TAFSNA
TAF
KSNA 062320Z 0700/0724 21009KT P6SM SCT020
     FM070100 VRB04KT P6SM SCT020
     FM070300 VRB04KT P6SM OVC015
     FM072000 21009KT P6SM SCT020=

USA.gov is the U.S. government's official web portal to all federal, state and local government web resources and services.